createdAt,value
2016-05-19T00:00:53.385Z,20.6
2016-05-19T00:01:52.918Z,20.58
2016-05-19T00:02:52.906Z,20.63
2016-05-19T00:03:52.909Z,20.61
2016-05-19T00:04:52.895Z,20.61
2016-05-19T00:05:52.711Z,20.6
2016-05-19T00:06:52.853Z,20.56
2016-05-19T00:07:52.841Z,20.61
2016-05-19T00:08:53.453Z,20.57
2016-05-19T00:09:52.831Z,20.61
2016-05-19T00:10:52.818Z,20.61
2016-05-19T00:11:52.789Z,20.61
2016-05-19T00:12:52.792Z,20.6
2016-05-19T00:13:52.780Z,20.63
2016-05-19T00:14:52.767Z,20.51
2016-05-19T00:15:52.738Z,20.57
2016-05-19T00:16:53.428Z,20.57
2016-05-19T00:17:52.712Z,20.63
2016-05-19T00:18:52.714Z,20.63
2016-05-19T00:19:52.686Z,20.66
2016-05-19T00:20:52.516Z,20.6
2016-05-19T00:21:52.660Z,20.56
2016-05-19T00:22:52.491Z,20.56
2016-05-19T00:23:53.102Z,20.58
2016-05-19T00:24:52.528Z,20.6
2016-05-19T00:25:52.624Z,20.61
2016-05-19T00:26:52.595Z,20.6
2016-05-19T00:27:52.613Z,20.57
2016-05-19T00:28:52.570Z,20.58
2016-05-19T00:29:52.573Z,20.58
2016-05-19T00:30:52.543Z,20.57
2016-05-19T00:31:52.546Z,20.64
2016-05-19T00:32:52.720Z,20.57
2016-05-19T00:33:52.504Z,20.51
2016-05-19T00:34:52.492Z,20.53
2016-05-19T00:35:52.479Z,20.6
2016-05-19T00:36:52.482Z,20.57
2016-05-19T00:37:52.453Z,20.63
2016-05-19T00:38:52.300Z,20.44
2016-05-19T00:39:52.428Z,20.6
2016-05-19T00:40:52.727Z,20.5
2016-05-19T00:41:52.245Z,20.58
2016-05-19T00:42:52.092Z,20.5
2016-05-19T00:43:52.375Z,20.6
2016-05-19T00:44:52.363Z,20.58
2016-05-19T00:45:52.194Z,20.58
2016-05-19T00:46:52.180Z,20.5
2016-05-19T00:47:52.371Z,20.51
2016-05-19T00:48:52.717Z,20.5
2016-05-19T00:49:52.313Z,20.57
2016-05-19T00:50:52.129Z,20.6
2016-05-19T00:51:52.272Z,20.57
2016-05-19T00:52:52.259Z,20.5
2016-05-19T00:53:52.246Z,20.61
2016-05-19T00:54:52.233Z,20.48
2016-05-19T00:55:52.377Z,20.53
2016-05-19T00:56:52.224Z,20.56
2016-05-19T00:57:52.194Z,20.51
2016-05-19T00:58:52.181Z,20.64
2016-05-19T00:59:52.169Z,20.57
2016-05-19T01:00:52.156Z,20.58
2016-05-19T01:01:52.126Z,20.46
2016-05-19T01:02:52.129Z,20.5
2016-05-19T01:03:52.429Z,20.61
2016-05-19T01:04:52.104Z,20.63
2016-05-19T01:05:52.091Z,20.46
2016-05-19T01:06:52.078Z,20.5
2016-05-19T01:07:52.065Z,20.57
2016-05-19T01:08:51.771Z,20.48
2016-05-19T01:09:51.726Z,20.58
2016-05-19T01:10:52.026Z,20.5
2016-05-19T01:11:52.419Z,20.57
2016-05-19T01:12:52.016Z,20.64
2016-05-19T01:13:51.987Z,20.53
2016-05-19T01:14:51.975Z,20.61
2016-05-19T01:15:51.961Z,20.57
2016-05-19T01:16:51.949Z,20.61
2016-05-19T01:17:51.780Z,20.48
2016-05-19T01:18:51.923Z,20.53
2016-05-19T01:19:52.207Z,20.48
2016-05-19T01:20:51.896Z,20.53
2016-05-19T01:21:51.884Z,20.5
2016-05-19T01:22:51.872Z,20.56
2016-05-19T01:23:52.155Z,20.58
2016-05-19T01:24:51.704Z,20.5
2016-05-19T01:25:51.832Z,20.56
2016-05-19T01:26:51.835Z,20.48
2016-05-19T01:27:52.354Z,20.48
2016-05-19T01:28:51.793Z,20.5
2016-05-19T01:29:51.780Z,20.46
2016-05-19T01:30:51.768Z,20.46
2016-05-19T01:31:51.770Z,20.56
2016-05-19T01:32:51.742Z,20.53
2016-05-19T01:33:51.729Z,20.53
2016-05-19T01:34:51.731Z,20.44
2016-05-19T01:35:52.406Z,20.51
2016-05-19T01:36:51.549Z,20.53
2016-05-19T01:37:51.551Z,20.51
2016-05-19T01:38:51.524Z,20.51
2016-05-19T01:39:51.650Z,20.44
2016-05-19T01:40:51.638Z,20.44
2016-05-19T01:41:51.469Z,20.56
2016-05-19T01:42:51.612Z,20.44
2016-05-19T01:43:51.647Z,20.53
2016-05-19T01:44:51.446Z,20.48
2016-05-19T01:45:51.573Z,20.53
2016-05-19T01:46:51.545Z,20.46
2016-05-19T01:47:51.391Z,20.54
2016-05-19T01:48:51.519Z,20.53
2016-05-19T01:49:51.366Z,20.48
2016-05-19T01:50:51.353Z,20.53
2016-05-19T01:51:51.543Z,20.53
2016-05-19T01:52:51.483Z,20.51
2016-05-19T01:53:51.470Z,20.44
2016-05-19T01:54:51.472Z,20.46
2016-05-19T01:55:51.444Z,20.5
2016-05-19T01:56:51.275Z,20.53
2016-05-19T01:57:51.402Z,20.48
2016-05-19T01:58:51.390Z,20.44
2016-05-19T01:59:51.690Z,20.53
2016-05-19T02:00:51.363Z,20.46
2016-05-19T02:01:51.210Z,20.57
2016-05-19T02:02:51.353Z,20.51
2016-05-19T02:03:51.184Z,20.54
2016-05-19T02:04:51.329Z,20.46
2016-05-19T02:05:51.315Z,20.5
2016-05-19T02:06:51.301Z,20.51
2016-05-19T02:07:52.429Z,20.51
2016-05-19T02:08:51.339Z,20.51
2016-05-19T02:09:51.263Z,20.56
2016-05-19T02:10:51.251Z,20.44
2016-05-19T02:11:51.222Z,20.54
2016-05-19T02:12:51.225Z,20.5
2016-05-19T02:13:51.056Z,20.5
2016-05-19T02:14:51.198Z,20.44
2016-05-19T02:15:51.186Z,20.48
2016-05-19T02:16:51.156Z,20.5
2016-05-19T02:17:51.003Z,20.48
2016-05-19T02:18:51.147Z,20.5
2016-05-19T02:19:51.118Z,20.56
2016-05-19T02:20:50.949Z,20.44
2016-05-19T02:21:51.108Z,20.5
2016-05-19T02:22:51.094Z,20.41
2016-05-19T02:23:51.113Z,20.48
2016-05-19T02:24:50.905Z,20.53
2016-05-19T02:25:51.049Z,20.53
2016-05-19T02:26:51.035Z,20.56
2016-05-19T02:27:51.022Z,20.54
2016-05-19T02:28:51.010Z,20.48
2016-05-19T02:29:50.997Z,20.56
2016-05-19T02:30:50.843Z,20.51
2016-05-19T02:31:50.815Z,20.5
2016-05-19T02:32:50.707Z,20.54
2016-05-19T02:33:50.929Z,20.53
2016-05-19T02:34:50.776Z,20.56
2016-05-19T02:35:50.794Z,20.46
2016-05-19T02:36:50.906Z,20.54
2016-05-19T02:37:50.909Z,20.53
2016-05-19T02:38:51.365Z,20.5
2016-05-19T02:39:50.867Z,20.5
2016-05-19T02:40:50.726Z,20.46
2016-05-19T02:41:50.897Z,20.48
2016-05-19T02:42:50.787Z,20.46
2016-05-19T02:43:50.974Z,20.51
2016-05-19T02:44:51.020Z,20.44
2016-05-19T02:45:51.047Z,20.46
2016-05-19T02:46:51.019Z,20.46
2016-05-19T02:47:51.021Z,20.46
2016-05-19T02:48:51.040Z,20.5
2016-05-19T02:49:50.886Z,20.53
2016-05-19T02:50:51.022Z,20.48
2016-05-19T02:51:50.718Z,20.51
2016-05-19T02:52:51.009Z,20.54
2016-05-19T02:53:50.859Z,20.5
2016-05-19T02:54:50.993Z,20.48
2016-05-19T02:55:50.984Z,20.48
2016-05-19T02:56:51.020Z,20.5
2016-05-19T02:57:50.962Z,20.5
2016-05-19T02:58:50.951Z,20.54
2016-05-19T02:59:50.940Z,20.54
2016-05-19T03:00:50.929Z,20.51
2016-05-19T03:01:50.916Z,20.5
2016-05-19T03:02:50.903Z,20.5
2016-05-19T03:03:50.892Z,20.48
2016-05-19T03:04:51.082Z,20.53
2016-05-19T03:05:50.711Z,20.51
2016-05-19T03:06:50.855Z,20.48
2016-05-19T03:07:50.841Z,20.5
2016-05-19T03:08:50.517Z,20.48
2016-05-19T03:09:50.816Z,20.5
2016-05-19T03:10:50.803Z,20.48
2016-05-19T03:11:50.791Z,20.48
2016-05-19T03:12:51.075Z,20.53
2016-05-19T03:13:50.766Z,20.5
2016-05-19T03:14:50.753Z,20.46
2016-05-19T03:15:50.724Z,20.48
2016-05-19T03:16:50.711Z,20.5
2016-05-19T03:17:50.714Z,20.41
2016-05-19T03:18:50.685Z,20.51
2016-05-19T03:19:50.672Z,20.54
2016-05-19T03:20:51.113Z,20.54
2016-05-19T03:21:50.662Z,20.5
2016-05-19T03:22:50.649Z,20.48
2016-05-19T03:23:50.635Z,20.5
2016-05-19T03:24:50.482Z,20.48
2016-05-19T03:25:50.610Z,20.46
2016-05-19T03:26:50.440Z,20.46
2016-05-19T03:27:50.568Z,20.54
2016-05-19T03:28:51.118Z,20.54
2016-05-19T03:29:50.559Z,20.48
2016-05-19T03:30:50.529Z,20.54
2016-05-19T03:31:50.517Z,20.53
2016-05-19T03:32:50.363Z,20.54
2016-05-19T03:33:50.507Z,20.53
2016-05-19T03:34:50.494Z,20.51
2016-05-19T03:35:50.465Z,20.48
2016-05-19T03:36:51.124Z,20.5
2016-05-19T03:37:50.439Z,20.46
2016-05-19T03:38:50.722Z,20.46
2016-05-19T03:39:50.429Z,20.51
2016-05-19T03:40:50.431Z,20.48
2016-05-19T03:41:50.403Z,20.53
2016-05-19T03:42:50.374Z,20.48
2016-05-19T03:43:50.377Z,20.48
2016-05-19T03:44:50.349Z,20.44
2016-05-19T03:45:50.335Z,20.53
2016-05-19T03:46:50.322Z,20.53
2016-05-19T03:47:50.153Z,20.48
2016-05-19T03:48:50.297Z,20.46
2016-05-19T03:49:50.128Z,20.44
2016-05-19T03:50:50.271Z,20.54
2016-05-19T03:51:50.258Z,20.42
2016-05-19T03:52:50.402Z,20.48
2016-05-19T03:53:50.467Z,20.5
2016-05-19T03:54:50.235Z,20.44
2016-05-19T03:55:50.050Z,20.44
2016-05-19T03:56:50.193Z,20.44
2016-05-19T03:57:50.180Z,20.41
2016-05-19T03:58:50.168Z,20.42
2016-05-19T03:59:50.170Z,20.41
2016-05-19T04:00:50.407Z,20.44
2016-05-19T04:01:50.128Z,20.37
2016-05-19T04:02:50.115Z,20.44
2016-05-19T04:03:50.118Z,20.48
2016-05-19T04:04:50.090Z,20.5
2016-05-19T04:05:50.076Z,20.44
2016-05-19T04:06:50.079Z,20.44
2016-05-19T04:07:50.051Z,20.46
2016-05-19T04:08:50.414Z,20.42
2016-05-19T04:09:49.870Z,20.4
2016-05-19T04:10:50.028Z,20.51
2016-05-19T04:11:50.000Z,20.34
2016-05-19T04:12:49.987Z,20.44
2016-05-19T04:13:49.817Z,20.42
2016-05-19T04:14:49.960Z,20.42
2016-05-19T04:15:50.057Z,20.42
2016-05-19T04:16:50.435Z,20.38
2016-05-19T04:17:49.922Z,20.4
2016-05-19T04:18:49.908Z,20.4
2016-05-19T04:19:49.911Z,20.44
2016-05-19T04:20:49.866Z,20.33
2016-05-19T04:21:49.713Z,20.42
2016-05-19T04:22:49.857Z,20.33
2016-05-19T04:23:50.047Z,20.38
2016-05-19T04:24:49.832Z,20.38
2016-05-19T04:25:49.662Z,20.35
2016-05-19T04:26:49.821Z,20.38
2016-05-19T04:27:49.793Z,20.4
2016-05-19T04:28:49.780Z,20.37
2016-05-19T04:29:49.610Z,20.33
2016-05-19T04:30:49.598Z,20.44
2016-05-19T04:31:50.038Z,20.42
2016-05-19T04:32:49.571Z,20.38
2016-05-19T04:33:49.715Z,20.35
2016-05-19T04:34:49.701Z,20.33
2016-05-19T04:35:49.532Z,20.44
2016-05-19T04:36:49.676Z,20.38
2016-05-19T04:37:49.506Z,20.41
2016-05-19T04:38:49.495Z,20.35
2016-05-19T04:39:50.028Z,20.34
2016-05-19T04:40:49.624Z,20.35
2016-05-19T04:41:49.596Z,20.37
2016-05-19T04:42:49.583Z,20.42
2016-05-19T04:43:49.586Z,20.35
2016-05-19T04:44:49.572Z,20.38
2016-05-19T04:45:49.559Z,20.38
2016-05-19T04:46:49.546Z,20.35
2016-05-19T04:47:50.128Z,20.37
2016-05-19T04:48:49.521Z,20.41
2016-05-19T04:49:49.508Z,20.37
2016-05-19T04:50:49.495Z,20.37
2016-05-19T04:51:49.482Z,20.35
2016-05-19T04:52:49.313Z,20.4
2016-05-19T04:53:49.299Z,20.34
2016-05-19T04:54:49.444Z,20.4
2016-05-19T04:55:49.915Z,20.37
2016-05-19T04:56:49.401Z,20.35
2016-05-19T04:57:49.389Z,20.38
2016-05-19T04:58:49.376Z,20.35
2016-05-19T04:59:49.207Z,20.33
2016-05-19T05:00:49.366Z,20.34
2016-05-19T05:01:49.352Z,20.37
2016-05-19T05:02:49.184Z,20.31
2016-05-19T05:03:49.326Z,20.33
2016-05-19T05:04:49.314Z,20.33
2016-05-19T05:05:49.285Z,20.35
2016-05-19T05:06:49.304Z,20.3
2016-05-19T05:07:49.118Z,20.34
2016-05-19T05:08:49.262Z,20.35
2016-05-19T05:09:49.249Z,20.41
2016-05-19T05:10:49.236Z,20.35
2016-05-19T05:11:49.223Z,20.35
2016-05-19T05:12:49.211Z,20.37
2016-05-19T05:13:49.198Z,20.33
2016-05-19T05:14:49.012Z,20.33
2016-05-19T05:15:49.156Z,20.38
2016-05-19T05:16:49.143Z,20.4
2016-05-19T05:17:49.130Z,20.44
2016-05-19T05:18:49.117Z,20.37
2016-05-19T05:19:49.355Z,20.33
2016-05-19T05:20:49.107Z,20.38
2016-05-19T05:21:49.078Z,20.34
2016-05-19T05:22:49.080Z,20.37
2016-05-19T05:23:49.286Z,20.37
2016-05-19T05:24:49.040Z,20.34
2016-05-19T05:25:49.042Z,20.38
2016-05-19T05:26:49.013Z,20.34
2016-05-19T05:27:49.391Z,20.4
2016-05-19T05:28:49.004Z,20.37
2016-05-19T05:29:48.975Z,20.3
2016-05-19T05:30:48.962Z,20.38
2016-05-19T05:31:48.965Z,20.37
2016-05-19T05:32:48.936Z,20.34
2016-05-19T05:33:48.782Z,20.35
2016-05-19T05:34:49.004Z,20.33
2016-05-19T05:35:50.101Z,20.35
2016-05-19T05:36:48.884Z,20.31
2016-05-19T05:37:48.871Z,20.35
2016-05-19T05:38:49.515Z,20.38
2016-05-19T05:39:48.846Z,20.37
2016-05-19T05:40:48.848Z,20.3
2016-05-19T05:41:48.507Z,20.33
2016-05-19T05:42:49.010Z,20.37
2016-05-19T05:43:48.795Z,20.37
2016-05-19T05:44:48.797Z,20.35
2016-05-19T05:45:48.612Z,20.34
2016-05-19T05:46:48.755Z,20.35
2016-05-19T05:47:48.758Z,20.33
2016-05-19T05:48:48.728Z,20.35
2016-05-19T05:49:48.404Z,20.4
2016-05-19T05:50:49.016Z,20.33
2016-05-19T05:51:48.550Z,20.38
2016-05-19T05:52:48.678Z,20.33
2016-05-19T05:53:48.508Z,20.34
2016-05-19T05:54:48.667Z,20.35
2016-05-19T05:55:48.483Z,20.31
2016-05-19T05:56:48.625Z,20.4
2016-05-19T05:57:48.472Z,20.37
2016-05-19T05:58:49.084Z,20.37
2016-05-19T05:59:48.587Z,20.37
2016-05-19T06:00:48.418Z,20.34
2016-05-19T06:01:48.249Z,20.34
2016-05-19T06:02:48.549Z,20.34
2016-05-19T06:03:48.551Z,20.35
2016-05-19T06:04:48.366Z,20.31
2016-05-19T06:05:48.510Z,20.34
2016-05-19T06:06:49.043Z,20.34
2016-05-19T06:07:48.484Z,20.35
2016-05-19T06:08:48.798Z,20.34
2016-05-19T06:09:48.442Z,20.31
2016-05-19T06:10:48.445Z,20.27
2016-05-19T06:11:48.259Z,20.38
2016-05-19T06:12:48.418Z,20.4
2016-05-19T06:13:48.406Z,20.34
2016-05-19T06:14:48.878Z,20.34
2016-05-19T06:15:48.381Z,20.38
2016-05-19T06:16:48.211Z,20.37
2016-05-19T06:17:48.354Z,20.35
2016-05-19T06:18:48.341Z,20.37
2016-05-19T06:19:48.344Z,20.33
2016-05-19T06:20:48.158Z,20.31
2016-05-19T06:21:48.287Z,20.31
2016-05-19T06:22:48.180Z,20.34
2016-05-19T06:23:48.277Z,20.38
2016-05-19T06:24:48.108Z,20.34
2016-05-19T06:25:48.236Z,20.34
2016-05-19T06:26:48.238Z,20.31
2016-05-19T06:27:48.208Z,20.3
2016-05-19T06:28:48.196Z,20.31
2016-05-19T06:29:48.199Z,20.37
2016-05-19T06:30:48.326Z,20.38
2016-05-19T06:31:48.174Z,20.35
2016-05-19T06:32:48.160Z,20.33
2016-05-19T06:33:48.147Z,20.37
2016-05-19T06:34:48.135Z,20.4
2016-05-19T06:35:47.965Z,20.38
2016-05-19T06:36:47.937Z,20.35
2016-05-19T06:37:48.079Z,20.25
2016-05-19T06:38:48.332Z,19.94
2016-05-19T06:39:48.085Z,19.75
2016-05-19T06:40:48.041Z,19.62
2016-05-19T06:41:47.871Z,19.5
2016-05-19T06:42:48.015Z,19.49
2016-05-19T06:43:48.002Z,19.39
2016-05-19T06:44:47.834Z,19.46
2016-05-19T06:45:47.992Z,19.3
2016-05-19T06:46:48.198Z,19.28
2016-05-19T06:47:47.810Z,19.2
2016-05-19T06:48:47.969Z,19.28
2016-05-19T06:49:47.783Z,19.16
2016-05-19T06:50:47.755Z,19.25
2016-05-19T06:51:47.898Z,19.25
2016-05-19T06:52:47.901Z,19.16
2016-05-19T06:53:47.717Z,19.16
2016-05-19T06:54:48.375Z,19.15
2016-05-19T06:55:47.863Z,19.15
2016-05-19T06:56:47.850Z,19.21
2016-05-19T06:57:47.822Z,19.16
2016-05-19T06:58:47.807Z,19.2
2016-05-19T06:59:47.795Z,19.24
2016-05-19T07:00:47.782Z,19.25
2016-05-19T07:01:47.769Z,19.17
2016-05-19T07:02:47.787Z,19.23
2016-05-19T07:03:47.743Z,19.2
2016-05-19T07:04:47.574Z,19.2
2016-05-19T07:05:47.546Z,19.24
2016-05-19T07:06:47.704Z,19.16
2016-05-19T07:07:47.535Z,19.12
2016-05-19T07:08:47.679Z,19.15
2016-05-19T07:09:47.509Z,19.15
2016-05-19T07:10:47.496Z,19.17
2016-05-19T07:11:47.640Z,19.2
2016-05-19T07:12:47.470Z,19.24
2016-05-19T07:13:47.457Z,19.23
2016-05-19T07:14:47.289Z,19.17
2016-05-19T07:15:47.572Z,19.13
2016-05-19T07:16:47.403Z,19.17
2016-05-19T07:17:47.406Z,19.13
2016-05-19T07:18:47.550Z,19.09
2016-05-19T07:19:47.520Z,19.09
2016-05-19T07:20:47.523Z,19.05
2016-05-19T07:21:47.511Z,18.99
2016-05-19T07:22:47.341Z,19.01
2016-05-19T07:23:47.563Z,18.89
2016-05-19T07:24:47.300Z,18.91
2016-05-19T07:25:47.287Z,18.99
2016-05-19T07:26:47.289Z,18.99
2016-05-19T07:27:47.370Z,19.02
2016-05-19T07:28:47.405Z,18.97
2016-05-19T07:29:47.408Z,18.96
2016-05-19T07:30:47.222Z,19.07
2016-05-19T07:31:47.366Z,19.12
2016-05-19T07:32:47.352Z,18.99
2016-05-19T07:33:47.340Z,19.06
2016-05-19T07:34:47.014Z,19.12
2016-05-19T07:35:47.361Z,19.07
2016-05-19T07:36:47.316Z,18.99
2016-05-19T07:37:47.288Z,19.01
2016-05-19T07:38:47.384Z,18.99
2016-05-19T07:39:47.121Z,18.91
2016-05-19T07:40:47.093Z,18.97
2016-05-19T07:41:47.236Z,18.97
2016-05-19T07:42:47.051Z,19.09
2016-05-19T07:43:47.382Z,19.06
2016-05-19T07:44:47.040Z,19.09
2016-05-19T07:45:47.185Z,18.96
2016-05-19T07:46:47.000Z,19.05
2016-05-19T07:47:47.142Z,19.06
2016-05-19T07:48:46.990Z,19.15
2016-05-19T07:49:47.118Z,19.09
2016-05-19T07:50:47.104Z,19.09
2016-05-19T07:51:47.357Z,19.13
2016-05-19T07:52:47.109Z,19.12
2016-05-19T07:53:47.847Z,18.99
2016-05-19T07:54:47.052Z,19.07
2016-05-19T07:55:47.039Z,18.93
2016-05-19T07:56:46.870Z,19.01
2016-05-19T07:57:47.014Z,18.99
2016-05-19T07:58:47.000Z,18.91
2016-05-19T07:59:47.378Z,18.94
2016-05-19T08:00:46.975Z,18.94
2016-05-19T08:01:46.946Z,19.01
2016-05-19T08:02:46.636Z,18.99
2016-05-19T08:03:46.951Z,18.93
2016-05-19T08:04:46.766Z,19.05
2016-05-19T08:05:46.894Z,18.97
2016-05-19T08:06:46.882Z,18.96
2016-05-19T08:07:47.385Z,18.99
2016-05-19T08:08:46.716Z,18.91
2016-05-19T08:09:46.702Z,18.96
2016-05-19T08:10:46.830Z,18.86
2016-05-19T08:11:46.660Z,18.87
2016-05-19T08:12:46.648Z,18.97
2016-05-19T08:13:46.807Z,18.94
2016-05-19T08:14:46.778Z,18.99
2016-05-19T08:15:47.374Z,18.96
2016-05-19T08:16:46.752Z,18.91
2016-05-19T08:17:46.740Z,18.97
2016-05-19T08:18:46.711Z,19.07
2016-05-19T08:19:46.714Z,19.13
2016-05-19T08:20:46.544Z,19.15
2016-05-19T08:21:46.687Z,19.21
2016-05-19T08:22:46.675Z,19.17
2016-05-19T08:23:47.411Z,19.13
2016-05-19T08:24:46.633Z,19.2
2016-05-19T08:25:46.619Z,19.28
2016-05-19T08:26:46.607Z,19.52
2016-05-19T08:27:46.594Z,19.75
2016-05-19T08:28:46.597Z,19.8
2016-05-19T08:29:46.584Z,19.85
2016-05-19T08:30:46.399Z,19.83
2016-05-19T08:31:46.699Z,19.83
2016-05-19T08:32:46.530Z,19.86
2016-05-19T08:33:46.501Z,19.89
2016-05-19T08:34:46.505Z,19.94
2016-05-19T08:35:46.491Z,19.9
2016-05-19T08:36:46.494Z,19.97
2016-05-19T08:37:46.465Z,19.92
2016-05-19T08:38:46.968Z,20.01
2016-05-19T08:39:46.751Z,19.95
2016-05-19T08:40:46.457Z,19.95
2016-05-19T08:41:46.413Z,20.1
2016-05-19T08:42:46.416Z,20.01
2016-05-19T08:43:46.404Z,19.95
2016-05-19T08:44:46.234Z,20.02
2016-05-19T08:45:46.205Z,20.17
2016-05-19T08:46:46.348Z,20.13
2016-05-19T08:47:46.726Z,20.13
2016-05-19T08:48:46.306Z,20.12
2016-05-19T08:49:46.294Z,20.19
2016-05-19T08:50:46.297Z,20.23
2016-05-19T08:51:46.284Z,20.19
2016-05-19T08:52:46.255Z,20.19
2016-05-19T08:53:46.805Z,20.19
2016-05-19T08:54:46.401Z,20.26
2016-05-19T08:55:46.732Z,20.34
2016-05-19T08:56:46.203Z,20.33
2016-05-19T08:57:46.206Z,20.38
2016-05-19T08:58:46.177Z,20.41
2016-05-19T08:59:46.164Z,20.35
2016-05-19T09:00:46.152Z,20.42
2016-05-19T09:01:45.998Z,20.48
2016-05-19T09:02:46.376Z,20.44
2016-05-19T09:03:45.957Z,20.53
2016-05-19T09:04:46.100Z,20.5
2016-05-19T09:05:46.088Z,20.5
2016-05-19T09:06:46.090Z,20.56
2016-05-19T09:07:46.060Z,20.57
2016-05-19T09:08:45.907Z,20.6
2016-05-19T09:09:46.051Z,20.64
2016-05-19T09:10:46.476Z,20.68
2016-05-19T09:11:46.009Z,20.66
2016-05-19T09:12:46.013Z,20.69
2016-05-19T09:13:45.984Z,20.71
2016-05-19T09:14:45.954Z,20.75
2016-05-19T09:15:45.958Z,20.73
2016-05-19T09:16:45.788Z,20.81
2016-05-19T09:17:45.948Z,20.81
2016-05-19T09:18:46.465Z,20.83
2016-05-19T09:19:45.907Z,20.85
2016-05-19T09:20:45.893Z,20.81
2016-05-19T09:21:45.880Z,20.9
2016-05-19T09:22:45.867Z,20.85
2016-05-19T09:23:45.854Z,20.87
2016-05-19T09:24:45.842Z,20.91
2016-05-19T09:25:45.828Z,20.96
2016-05-19T09:26:46.472Z,20.9
2016-05-19T09:27:45.802Z,20.9
2016-05-19T09:28:45.774Z,20.87
2016-05-19T09:29:45.777Z,20.87
2016-05-19T09:30:45.467Z,20.96
2016-05-19T09:31:45.751Z,20.93
2016-05-19T09:32:45.581Z,20.97
2016-05-19T09:33:45.553Z,20.96
2016-05-19T09:34:46.446Z,20.94
2016-05-19T09:35:45.683Z,20.97
2016-05-19T09:36:45.513Z,20.94
2016-05-19T09:37:45.689Z,20.98
2016-05-19T09:38:45.864Z,20.94
2016-05-19T09:39:45.647Z,21.01
2016-05-19T09:40:45.635Z,20.97
2016-05-19T09:41:45.465Z,21.01
2016-05-19T09:42:45.687Z,21.01
2016-05-19T09:43:45.596Z,20.94
2016-05-19T09:44:45.567Z,20.96
2016-05-19T09:45:45.570Z,21.03
2016-05-19T09:46:45.541Z,21.09
2016-05-19T09:47:45.529Z,20.97
2016-05-19T09:48:45.546Z,21.08
2016-05-19T09:49:45.502Z,21.06
2016-05-19T09:50:45.537Z,21.09
2016-05-19T09:51:45.492Z,21.09
2016-05-19T09:52:45.479Z,21.08
2016-05-19T09:53:45.467Z,21
2016-05-19T09:54:45.312Z,21.05
2016-05-19T09:55:45.425Z,20.98
2016-05-19T09:56:45.443Z,21.05
2016-05-19T09:57:45.398Z,21.06
2016-05-19T09:58:45.526Z,21.12
2016-05-19T09:59:45.233Z,21.05
2016-05-19T10:00:45.375Z,21.11
2016-05-19T10:01:45.347Z,21.15
2016-05-19T10:02:45.334Z,21.09
2016-05-19T10:03:45.165Z,21.05
2016-05-19T10:04:45.308Z,21.12
2016-05-19T10:05:45.499Z,21.19
2016-05-19T10:06:45.705Z,21.19
2016-05-19T10:07:45.130Z,21.12
2016-05-19T10:08:45.616Z,21.21
2016-05-19T10:09:45.244Z,21.22
2016-05-19T10:10:45.230Z,21.15
2016-05-19T10:11:45.061Z,21.12
2016-05-19T10:12:45.221Z,21.18
2016-05-19T10:13:45.396Z,21.18
2016-05-19T10:14:45.210Z,21.13
2016-05-19T10:15:45.166Z,21.15
2016-05-19T10:16:45.154Z,21.24
2016-05-19T10:17:45.140Z,21.13
2016-05-19T10:18:45.143Z,21.24
2016-05-19T10:19:45.130Z,21.16
2016-05-19T10:20:45.102Z,21.13
2016-05-19T10:21:45.401Z,21.26
2016-05-19T10:22:45.091Z,21.21
2016-05-19T10:23:44.953Z,21.19
2016-05-19T10:24:45.034Z,21.27
2016-05-19T10:25:45.021Z,21.24
2016-05-19T10:26:45.024Z,21.13
2016-05-19T10:27:44.995Z,21.18
2016-05-19T10:28:44.998Z,21.15
2016-05-19T10:29:46.673Z,21.13
2016-05-19T10:30:44.956Z,21.27
2016-05-19T10:31:44.944Z,21.21
2016-05-19T10:32:44.947Z,21.27
2016-05-19T10:33:44.934Z,21.26
2016-05-19T10:34:44.746Z,21.24
2016-05-19T10:35:44.908Z,21.24
2016-05-19T10:36:44.894Z,21.26
2016-05-19T10:37:44.866Z,21.21
2016-05-19T10:38:44.710Z,21.31
2016-05-19T10:39:44.853Z,21.19
2016-05-19T10:40:44.684Z,21.22
2016-05-19T10:41:44.655Z,21.26
2016-05-19T10:42:44.799Z,21.21
2016-05-19T10:43:46.538Z,21.27
2016-05-19T10:44:44.616Z,21.24
2016-05-19T10:45:44.760Z,21.22
2016-05-19T10:46:44.747Z,21.21
2016-05-19T10:47:44.578Z,21.22
2016-05-19T10:48:44.721Z,21.21
2016-05-19T10:49:44.724Z,21.13
2016-05-19T10:50:44.554Z,21.24
2016-05-19T10:51:44.682Z,21.27
2016-05-19T10:52:44.513Z,21.28
2016-05-19T10:53:44.547Z,21.27
2016-05-19T10:54:44.549Z,21.28
2016-05-19T10:55:44.631Z,21.3
2016-05-19T10:56:44.618Z,21.28
2016-05-19T10:57:44.448Z,21.36
2016-05-19T10:58:44.606Z,21.37
2016-05-19T10:59:44.595Z,21.38
2016-05-19T11:00:44.598Z,21.36
2016-05-19T11:01:44.553Z,21.38
2016-05-19T11:02:44.587Z,21.33
2016-05-19T11:03:44.542Z,21.33
2016-05-19T11:04:44.514Z,21.38
2016-05-19T11:05:44.516Z,21.34
2016-05-19T11:06:44.503Z,21.42
2016-05-19T11:07:44.491Z,21.45
2016-05-19T11:08:44.494Z,21.42
2016-05-19T11:09:44.465Z,21.43
2016-05-19T11:10:44.592Z,21.42
2016-05-19T11:11:44.266Z,21.38
2016-05-19T11:12:44.426Z,21.31
2016-05-19T11:13:44.258Z,21.34
2016-05-19T11:14:44.385Z,21.22
2016-05-19T11:15:44.372Z,21.28
2016-05-19T11:16:44.202Z,21.34
2016-05-19T11:17:44.361Z,21.42
2016-05-19T11:18:44.598Z,21.4
2016-05-19T11:19:44.335Z,21.53
2016-05-19T11:20:44.323Z,21.4
2016-05-19T11:21:44.310Z,21.48
2016-05-19T11:22:44.296Z,21.4
2016-05-19T11:23:44.331Z,21.48
2016-05-19T11:24:44.130Z,21.53
2016-05-19T11:25:44.243Z,21.49
2016-05-19T11:26:44.604Z,21.52
2016-05-19T11:27:44.232Z,21.55
2016-05-19T11:28:44.220Z,21.53
2016-05-19T11:29:44.223Z,21.56
2016-05-19T11:30:44.225Z,21.55
2016-05-19T11:31:44.040Z,21.55
2016-05-19T11:32:44.151Z,21.58
2016-05-19T11:33:46.735Z,21.67
2016-05-19T11:34:44.688Z,21.68
2016-05-19T11:35:44.144Z,21.63
2016-05-19T11:36:43.975Z,21.68
2016-05-19T11:37:44.103Z,21.56
2016-05-19T11:38:44.105Z,21.49
2016-05-19T11:39:44.092Z,21.58
2016-05-19T11:40:44.063Z,21.63
2016-05-19T11:41:44.050Z,21.55
2016-05-19T11:42:44.758Z,21.56
2016-05-19T11:43:43.869Z,21.59
2016-05-19T11:44:43.871Z,21.56
2016-05-19T11:45:43.999Z,21.55
2016-05-19T11:46:44.002Z,21.61
2016-05-19T11:47:44.012Z,21.55
2016-05-19T11:48:43.897Z,21.55
2016-05-19T11:49:44.081Z,21.52
2016-05-19T11:50:44.859Z,21.55
2016-05-19T11:51:44.151Z,21.53
2016-05-19T11:52:44.140Z,21.51
2016-05-19T11:53:43.985Z,21.51
2016-05-19T11:54:44.143Z,21.56
2016-05-19T11:55:43.988Z,21.56
2016-05-19T11:56:44.130Z,21.58
2016-05-19T11:57:43.983Z,21.64
2016-05-19T11:58:44.178Z,21.58
2016-05-19T11:59:44.124Z,21.63
2016-05-19T12:00:44.148Z,21.58
2016-05-19T12:01:43.781Z,21.67
2016-05-19T12:02:44.099Z,21.77
2016-05-19T12:03:44.087Z,21.73
2016-05-19T12:04:44.076Z,21.77
2016-05-19T12:05:43.799Z,21.79
2016-05-19T12:06:44.242Z,21.79
2016-05-19T12:07:44.057Z,21.77
2016-05-19T12:08:44.202Z,21.77
2016-05-19T12:09:44.018Z,21.68
2016-05-19T12:10:44.005Z,21.79
2016-05-19T12:11:43.993Z,21.89
2016-05-19T12:12:44.059Z,21.94
2016-05-19T12:13:43.984Z,21.94
2016-05-19T12:14:44.221Z,22.08
2016-05-19T12:15:44.255Z,22.11
2016-05-19T12:16:43.947Z,22.29
2016-05-19T12:17:43.761Z,22.41
2016-05-19T12:18:43.905Z,22.44
2016-05-19T12:19:43.892Z,22.51
2016-05-19T12:20:43.879Z,22.44
2016-05-19T12:21:43.990Z,22.36
2016-05-19T12:22:44.259Z,22.31
2016-05-19T12:23:43.871Z,22.51
2016-05-19T12:24:43.843Z,22.49
2016-05-19T12:25:43.814Z,22.51
2016-05-19T12:26:43.817Z,22.69
2016-05-19T12:27:43.788Z,22.7
2016-05-19T12:28:43.791Z,22.81
2016-05-19T12:29:43.965Z,22.88
2016-05-19T12:30:43.765Z,22.86
2016-05-19T12:31:43.752Z,22.88
2016-05-19T12:32:43.740Z,22.82
2016-05-19T12:33:43.726Z,22.85
2016-05-19T12:34:43.729Z,22.96
2016-05-19T12:35:43.809Z,23
2016-05-19T12:36:43.719Z,22.96
2016-05-19T12:37:44.034Z,23.07
2016-05-19T12:38:47.975Z,22.97
2016-05-19T12:39:43.648Z,22.99
2016-05-19T12:40:43.636Z,23.07
2016-05-19T12:41:43.623Z,23.03
2016-05-19T12:42:43.611Z,22.97
2016-05-19T12:43:43.456Z,22.84
2016-05-19T12:44:43.584Z,23
2016-05-19T12:45:43.883Z,22.86
2016-05-19T12:46:43.558Z,22.61
2016-05-19T12:47:43.389Z,22.48
2016-05-19T12:48:43.532Z,22.29
2016-05-19T12:49:43.519Z,22.27
2016-05-19T12:50:43.522Z,22.15
2016-05-19T12:51:43.510Z,22.27
2016-05-19T12:52:43.496Z,22.27
2016-05-19T12:53:44.093Z,22.24
2016-05-19T12:54:43.471Z,22.14
2016-05-19T12:55:43.301Z,22.21